Seligman, Missouri
Current Conditions -  °F | °C
As of 11:57 AM on Thursday 30 Oct 2014 (Local Time) from KROG Reporting Station
Overcast Overcast  
Wind Chill: 62°   Ceiling: 7500
Heat Index: 62°   Visibility: 10mi
Dew Point: 42°   Wind: 15mph
Humidity: 48%   Direction: 230°SW
Pressure: 30.1"   Gusts: NA
Location:  36.52°N, 93.94°W
Report Text: KROG 301657Z AUTO 23013KT 10SM OVC075 17/06 A3010 RMK AO2 SLPNO T01670056 TSNO $
Loading
Personal Weather Stations






























Interactive Weather Map
Tropical Storm Tracking
New forecast layout! Learn more

10-Day Weather Forecast

Advertisements
Track Severe Weather on mobile